Time;durP1;ratioP1;P1;durP2;ratioP2;P2;SDS_P1;SDS_P2;PMS_P1;PMS_P2;Temp;Humidity;BMP_temperature;BMP_pressure;BME280_temperature;BME280_humidity;BME280_pressure;Samples;Min_cycle;Max_cycle;Signal;HPM_P1;HPM_P2
2021/05/26 00:00:18;;;;;;;3.95;1.30;;;;;;;11.60;44.50;101013.16;3548809;40;20346;-68
2021/05/26 00:02:45;;;;;;;1.75;1.10;;;;;;;11.59;44.70;101019.63;3549408;40;20057;-69
2021/05/26 00:05:17;;;;;;;3.80;1.30;;;;;;;11.59;44.41;101011.41;3548281;40;20379;-69
2021/05/26 00:07:48;;;;;;;3.63;1.20;;;;;;;11.60;44.58;101010.41;3531485;40;20093;-69
2021/05/26 00:10:19;;;;;;;3.13;1.20;;;;;;;11.62;44.24;101011.13;3549025;40;20062;-69
2021/05/26 00:12:48;;;;;;;2.20;1.20;;;;;;;11.63;44.30;101008.25;3539725;40;20089;-69
2021/05/26 00:15:16;;;;;;;2.78;1.23;;;;;;;11.63;44.33;101002.78;3547492;40;20132;-69
2021/05/26 00:17:46;;;;;;;2.05;1.00;;;;;;;11.64;44.23;101003.66;3548956;40;20047;-69
2021/05/26 00:20:14;;;;;;;2.10;1.20;;;;;;;11.63;44.10;101002.78;3548729;40;20132;-68
2021/05/26 00:22:42;;;;;;;2.33;1.17;;;;;;;11.63;44.19;101002.78;3546290;40;20155;-69
2021/05/26 00:25:11;;;;;;;2.05;1.10;;;;;;;11.64;44.14;100995.44;3548791;40;20057;-69
2021/05/26 00:27:39;;;;;;;1.92;1.10;;;;;;;11.64;44.14;100995.44;3546625;40;20315;-69
2021/05/26 00:30:09;;;;;;;2.25;1.00;;;;;;;11.64;43.71;100992.69;3538951;40;20163;-68
2021/05/26 00:32:37;;;;;;;2.38;1.00;;;;;;;11.60;43.82;100992.09;3540655;40;20046;-69
2021/05/26 00:35:06;;;;;;;2.72;1.05;;;;;;;11.60;44.23;100991.25;3539709;40;20046;-69
2021/05/26 00:37:34;;;;;;;2.50;1.20;;;;;;;11.58;44.12;100983.16;3539805;40;20050;-69
2021/05/26 00:40:02;;;;;;;2.72;1.20;;;;;;;11.56;44.02;100979.66;3531771;40;20085;-69
2021/05/26 00:42:30;;;;;;;2.65;1.10;;;;;;;11.57;43.95;100980.53;3547898;40;20153;-69
2021/05/26 00:44:58;;;;;;;2.95;1.10;;;;;;;11.56;44.10;100973.31;3548492;40;20404;-69
2021/05/26 00:47:41;;;;;;;1.95;1.23;;;;;;;11.59;44.00;100970.31;3539863;40;20070;-69
2021/05/26 00:50:12;;;;;;;3.65;1.50;;;;;;;11.55;44.36;100971.56;3537866;40;20062;-69
2021/05/26 00:52:40;;;;;;;2.42;1.20;;;;;;;11.55;43.71;100966.09;3539459;40;20050;-69
2021/05/26 00:55:11;;;;;;;3.13;1.30;;;;;;;11.57;43.88;100966.84;3548866;40;20054;-69
2021/05/26 00:57:40;;;;;;;3.38;1.40;;;;;;;11.54;43.98;100962.50;3546304;40;20431;-68
2021/05/26 01:00:10;;;;;;;4.10;1.48;;;;;;;11.54;44.15;100961.63;3547373;40;20043;-68
2021/05/26 01:02:40;;;;;;;4.55;1.60;;;;;;;11.53;44.02;100960.75;3539540;40;20058;-69
2021/05/26 01:05:12;;;;;;;5.13;1.60;;;;;;;11.52;44.19;100956.31;3530131;40;20106;-69
2021/05/26 01:07:50;;;;;;;3.67;1.80;;;;;;;11.50;43.92;100951.97;3540037;40;20118;-69
2021/05/26 01:10:19;;;;;;;4.50;2.00;;;;;;;11.49;43.85;100950.22;3539368;40;20324;-69
2021/05/26 01:13:03;;;;;;;4.18;1.73;;;;;;;11.46;43.56;100947.75;3547543;40;20054;-68
2021/05/26 01:15:31;;;;;;;4.63;1.60;;;;;;;11.45;43.69;100946.88;3547809;40;20114;-68
2021/05/26 01:18:22;;;;;;;3.33;1.80;;;;;;;11.44;43.69;100941.56;3548425;40;20588;-69
2021/05/26 01:20:53;;;;;;;3.53;1.75;;;;;;;11.38;43.68;100939.34;3548281;40;20062;-69
2021/05/26 01:23:23;;;;;;;3.30;1.55;;;;;;;11.40;43.90;100942.81;3548156;40;20066;-69
2021/05/26 01:25:59;;;;;;;3.42;1.70;;;;;;;11.39;43.79;100938.34;3548110;40;20058;-68
2021/05/26 01:28:29;;;;;;;4.40;1.70;;;;;;;11.40;43.56;100942.81;3538636;40;20047;-68
2021/05/26 01:30:58;;;;;;;4.70;1.80;;;;;;;11.37;43.57;100938.47;3539204;40;20049;-69
2021/05/26 01:33:29;;;;;;;2.33;1.45;;;;;;;11.35;43.84;100931.41;3547698;40;20050;-72
2021/05/26 01:36:03;;;;;;;3.88;2.10;;;;;;;11.33;43.53;100934.28;3537339;40;20051;-68
2021/05/26 01:38:38;;;;;;;5.10;1.88;;;;;;;11.32;43.76;100924.31;3531118;40;20126;-68
2021/05/26 01:41:09;;;;;;;5.00;1.70;;;;;;;11.28;43.64;100922.84;3548174;40;20182;-69
2021/05/26 01:43:55;;;;;;;4.70;1.83;;;;;;;11.26;43.55;100923.00;3532111;40;20054;-68
2021/05/26 01:46:45;;;;;;;3.35;1.92;;;;;;;11.23;43.60;100915.03;3547491;40;20050;-69
2021/05/26 01:49:32;;;;;;;3.15;1.63;;;;;;;11.22;43.69;100917.91;3546105;40;20086;-69
2021/05/26 01:52:20;;;;;;;4.45;1.70;;;;;;;11.19;43.68;100908.13;3548127;40;20069;-69
2021/05/26 01:55:10;;;;;;;3.75;1.60;;;;;;;11.20;43.81;100911.69;3544507;40;20042;-68
2021/05/26 01:57:59;;;;;;;3.80;1.40;;;;;;;11.16;43.75;100908.38;3531055;40;20779;-69
2021/05/26 02:00:52;;;;;;;;;;;;;;;10.89;44.29;100908.03;3536226;40;20395;-68
2021/05/26 02:03:43;;;;;;;3.42;1.30;;;;;;;11.12;44.03;100904.16;3538843;40;19938;-69
2021/05/26 02:06:32;;;;;;;6.68;1.58;;;;;;;11.14;43.71;100915.84;3530700;40;20432;-68
2021/05/26 02:09:19;;;;;;;3.90;1.50;;;;;;;11.14;43.77;100910.38;3545511;40;20046;-69
2021/05/26 02:12:21;;;;;;;2.75;1.70;;;;;;;11.16;43.77;100911.13;3545495;40;20058;-69
2021/05/26 02:15:14;;;;;;;4.20;1.52;;;;;;;11.14;44.14;100906.78;3543788;40;20323;-68
2021/05/26 02:18:03;;;;;;;2.95;1.52;;;;;;;11.13;44.25;100900.41;3547169;40;20072;-68
2021/05/26 02:20:51;;;;;;;3.15;1.52;;;;;;;11.15;44.06;100900.28;3548147;40;20050;-69
2021/05/26 02:23:38;;;;;;;2.97;1.45;;;;;;;11.15;44.00;100900.28;3548814;40;20071;-68
2021/05/26 02:26:26;;;;;;;3.95;1.52;;;;;;;11.15;44.09;100901.16;3550972;40;20461;-69
2021/05/26 02:29:17;;;;;;;4.07;1.77;;;;;;;11.18;44.24;100900.03;3547960;40;20046;-68
2021/05/26 02:32:06;;;;;;;4.18;1.60;;;;;;;11.17;44.36;100895.56;3547836;40;20395;-68
2021/05/26 02:35:04;;;;;;;3.33;1.55;;;;;;;11.16;43.87;100891.09;3544365;40;20067;-68
2021/05/26 02:37:52;;;;;;;3.88;1.60;;;;;;;11.16;44.12;100888.34;3537080;40;20347;-68
2021/05/26 02:40:20;;;;;;;4.15;1.70;;;;;;;11.18;44.12;100887.22;3548154;40;20080;-68
2021/05/26 02:42:48;;;;;;;5.72;1.90;;;;;;;11.19;43.97;100891.69;3552083;40;20050;-68
2021/05/26 02:45:18;;;;;;;3.90;1.67;;;;;;;11.21;44.00;100889.66;3549038;40;20056;-68
2021/05/26 02:47:47;;;;;;;4.07;1.70;;;;;;;11.20;44.28;100884.31;3549112;40;20049;-68
2021/05/26 02:50:17;;;;;;;3.42;1.60;;;;;;;11.21;44.25;100891.53;3547870;40;20455;-67
2021/05/26 02:52:49;;;;;;;4.38;1.50;;;;;;;11.17;43.96;100884.59;3544193;40;20054;-68
2021/05/26 02:55:20;;;;;;;3.83;1.52;;;;;;;11.19;44.00;100878.00;3540879;40;20058;-68
2021/05/26 02:58:06;;;;;;;4.18;1.70;;;;;;;11.16;43.88;100877.41;3549367;40;20141;-68
2021/05/26 03:00:52;;;;;;;3.30;1.75;;;;;;;11.16;43.99;100877.41;3546391;40;20054;-68
2021/05/26 03:03:51;;;;;;;4.13;1.50;;;;;;;11.15;44.26;100873.78;3539247;40;20070;-68
2021/05/26 03:06:29;;;;;;;3.67;1.30;;;;;;;11.16;44.14;100872.78;3547811;40;20088;-68
2021/05/26 03:08:57;;;;;;;4.13;1.65;;;;;;;11.15;44.08;100871.06;3535478;40;20076;-67
2021/05/26 03:11:36;;;;;;;2.72;1.45;;;;;;;11.14;44.26;100873.91;3542316;40;20066;-68
2021/05/26 03:14:10;;;;;;;5.63;1.60;;;;;;;11.13;44.27;100870.31;3534496;40;20046;-68
2021/05/26 03:16:41;;;;;;;5.88;1.40;;;;;;;11.14;43.73;100862.97;3548625;40;20058;-68
2021/05/26 03:19:11;;;;;;;2.83;1.40;;;;;;;11.12;43.86;100871.31;3549332;40;20054;-67
2021/05/26 03:21:40;;;;;;;4.60;1.50;;;;;;;11.11;43.81;100872.31;3548556;40;20054;-68
2021/05/26 03:24:28;;;;;;;3.80;1.25;;;;;;;11.08;44.01;100869.84;3548158;40;20157;-68
2021/05/26 03:26:56;;;;;;;4.53;1.40;;;;;;;11.07;44.12;100868.13;3534198;40;20054;-67
2021/05/26 03:29:24;;;;;;;3.05;1.40;;;;;;;11.06;44.37;100862.78;3545922;40;20050;-68
2021/05/26 03:31:53;;;;;;;4.55;1.58;;;;;;;11.07;43.98;100861.78;3548637;40;20082;-69
2021/05/26 03:34:21;;;;;;;3.72;1.55;;;;;;;11.03;43.83;100869.38;3548974;40;20152;-68
2021/05/26 03:36:49;;;;;;;2.75;1.30;;;;;;;11.03;43.58;100868.53;3547870;40;20159;-68
2021/05/26 03:39:17;;;;;;;3.17;1.20;;;;;;;11.00;43.72;100857.84;3548371;40;20132;-68
2021/05/26 03:41:45;;;;;;;3.08;1.30;;;;;;;10.97;43.96;100861.72;3539682;40;20054;-68
2021/05/26 03:44:14;;;;;;;2.72;1.13;;;;;;;10.96;43.97;100859.97;3546653;40;20034;-68
2021/05/26 03:46:42;;;;;;;1.95;1.13;;;;;;;10.94;44.24;100855.66;3547859;40;20054;-68
2021/05/26 03:49:11;;;;;;;3.67;1.23;;;;;;;10.93;44.06;100857.53;3547416;40;20054;-68
2021/05/26 03:51:40;;;;;;;3.65;1.38;;;;;;;10.89;44.12;100859.66;3548057;40;20050;-68
2021/05/26 03:54:08;;;;;;;2.38;0.90;;;;;;;10.91;44.07;100859.53;3554953;40;20050;-68
2021/05/26 03:56:42;;;;;;;2.85;1.13;;;;;;;10.89;44.19;100853.31;3548901;40;20050;-68
2021/05/26 03:59:12;;;;;;;3.60;1.33;;;;;;;10.89;44.40;100856.06;3539776;40;20121;-68
2021/05/26 04:01:43;;;;;;;2.15;1.10;;;;;;;10.88;44.42;100855.19;3538771;40;20320;-68
2021/05/26 04:04:13;;;;;;;3.08;1.20;;;;;;;10.92;44.37;100846.72;3539576;40;20058;-68
2021/05/26 04:06:41;;;;;;;3.17;1.20;;;;;;;10.90;44.74;100849.56;3541393;40;20062;-68
2021/05/26 04:09:10;;;;;;;2.80;1.20;;;;;;;10.92;44.54;100857.66;3548178;40;20058;-68
2021/05/26 04:11:43;;;;;;;1.85;0.98;;;;;;;10.92;44.53;100844.84;3545170;40;20050;-68
2021/05/26 04:14:31;;;;;;;3.53;1.30;;;;;;;10.93;44.65;100840.25;3549131;40;20044;-68
2021/05/26 04:17:29;;;;;;;3.47;1.50;;;;;;;10.94;44.50;100845.59;3513883;40;20062;-71
2021/05/26 04:20:06;;;;;;;2.65;1.30;;;;;;;10.96;44.68;100840.81;3541312;40;20052;-69
2021/05/26 04:22:37;;;;;;;2.97;1.30;;;;;;;10.95;44.85;100847.28;3547335;40;20109;-69
2021/05/26 04:25:09;;;;;;;3.22;1.40;;;;;;;10.98;44.67;100847.03;3546187;40;20132;-69
2021/05/26 04:27:39;;;;;;;2.40;1.17;;;;;;;10.99;44.71;100839.69;3535020;40;20068;-69
2021/05/26 04:30:13;;;;;;;3.60;1.25;;;;;;;11.00;44.74;100835.97;3544616;40;20324;-69
2021/05/26 04:32:49;;;;;;;3.22;1.38;;;;;;;11.02;44.60;100837.56;3530461;40;20058;-69
2021/05/26 04:35:38;;;;;;;3.90;1.33;;;;;;;11.06;44.70;100833.53;3539604;40;20050;-69
2021/05/26 04:38:26;;;;;;;3.60;1.40;;;;;;;11.07;44.76;100832.53;3536224;40;20047;-69
2021/05/26 04:41:14;;;;;;;3.55;1.45;;;;;;;11.11;44.76;100830.41;3538920;40;20057;-69
2021/05/26 04:44:01;;;;;;;2.88;1.27;;;;;;;11.12;45.03;100822.03;3539991;40;20049;-69
2021/05/26 04:46:41;;;;;;;3.08;1.20;;;;;;;11.15;44.94;100820.91;3521721;40;20121;-69
2021/05/26 04:49:29;;;;;;;1.88;1.10;;;;;;;11.16;44.99;100828.09;3534448;40;20051;-69
2021/05/26 04:52:18;;;;;;;3.50;1.05;;;;;;;11.19;44.95;100817.75;3532731;40;20404;-68
2021/05/26 04:55:06;;;;;;;2.72;1.10;;;;;;;11.22;44.84;100825.69;3536688;40;20051;-68
2021/05/26 04:58:13;;;;;;;2.13;1.17;;;;;;;11.27;44.93;100819.81;3536393;40;20054;-71
2021/05/26 05:01:02;;;;;;;2.15;1.13;;;;;;;11.25;45.06;100824.56;3536406;40;20058;-72
2021/05/26 05:03:49;;;;;;;2.30;1.23;;;;;;;11.26;44.86;100827.16;3529100;40;20086;-69
2021/05/26 05:06:37;;;;;;;3.00;1.20;;;;;;;11.28;44.59;100827.00;3536929;40;20413;-69
2021/05/26 05:09:25;;;;;;;2.78;1.00;;;;;;;11.32;44.88;100824.84;3534529;40;20054;-69
2021/05/26 05:12:13;;;;;;;1.90;0.90;;;;;;;11.32;44.59;100822.13;3536106;40;20057;-69
2021/05/26 05:15:01;;;;;;;2.58;1.13;;;;;;;11.32;44.90;100817.50;3547935;40;20038;-68
2021/05/26 05:17:49;;;;;;;2.15;1.00;;;;;;;11.34;44.18;100814.66;3548320;40;20320;-68
2021/05/26 05:20:37;;;;;;;2.03;1.00;;;;;;;11.34;44.76;100804.56;3547362;40;20050;-69
2021/05/26 05:23:24;;;;;;;2.90;1.20;;;;;;;11.36;44.73;100807.16;3546034;40;20043;-69
2021/05/26 05:26:13;;;;;;;2.63;1.08;;;;;;;11.38;44.65;100805.13;3547902;40;20420;-69
2021/05/26 05:29:01;;;;;;;2.45;1.10;;;;;;;11.38;44.74;100805.13;3548513;40;20108;-69
2021/05/26 05:31:48;;;;;;;2.05;1.13;;;;;;;11.39;44.32;100805.00;3545924;40;20030;-69
2021/05/26 05:34:36;;;;;;;2.67;1.08;;;;;;;11.40;44.90;100800.38;3548086;40;20356;-69
2021/05/26 05:37:24;;;;;;;1.55;1.00;;;;;;;11.40;44.53;100804.00;3548710;40;20051;-69
2021/05/26 05:40:12;;;;;;;4.13;1.10;;;;;;;11.43;44.53;100808.34;3547561;40;20300;-70
2021/05/26 05:43:01;;;;;;;2.47;0.90;;;;;;;11.43;44.57;100798.25;3538872;40;20087;-68
2021/05/26 05:45:48;;;;;;;1.08;0.80;;;;;;;11.43;44.53;100800.13;3539795;40;20043;-69
2021/05/26 05:48:16;;;;;;;1.42;0.82;;;;;;;11.44;44.52;100794.47;3547671;40;20065;-68
2021/05/26 05:50:43;;;;;;;1.48;0.60;;;;;;;11.46;44.38;100797.06;3543334;40;20050;-69
2021/05/26 05:53:13;;;;;;;1.02;0.70;;;;;;;11.47;44.74;100793.34;3547843;40;20062;-69
2021/05/26 05:55:42;;;;;;;1.67;0.98;;;;;;;11.46;44.70;100784.25;3546028;40;20050;-69
2021/05/26 05:58:11;;;;;;;1.67;0.80;;;;;;;11.50;44.53;100790.34;3547824;40;20121;-70
2021/05/26 06:00:40;;;;;;;1.55;0.82;;;;;;;11.49;44.36;100794.94;3546094;40;20054;-69
2021/05/26 06:03:10;;;;;;;2.08;0.90;;;;;;;11.50;44.52;100793.06;3544529;40;20085;-69
2021/05/26 06:05:43;;;;;;;1.52;0.82;;;;;;;11.51;44.59;100795.69;3545183;40;20392;-69
2021/05/26 06:08:26;;;;;;;2.10;1.00;;;;;;;11.53;44.39;100787.28;3525572;40;20062;-68
2021/05/26 06:11:04;;;;;;;1.13;0.68;;;;;;;11.54;44.57;100784.41;3546728;40;20419;-69
2021/05/26 06:13:42;;;;;;;1.35;0.80;;;;;;;11.57;43.96;100788.75;3548181;40;20042;-69
2021/05/26 06:16:32;;;;;;;2.08;0.90;;;;;;;11.55;44.04;100780.69;3549073;40;20033;-69
2021/05/26 06:19:19;;;;;;;1.40;0.80;;;;;;;11.56;44.00;100787.88;3547855;40;20046;-70
2021/05/26 06:22:07;;;;;;;1.88;0.70;;;;;;;11.57;44.09;100781.41;3542852;40;20055;-71
2021/05/26 06:24:50;;;;;;;0.80;0.70;;;;;;;11.58;43.94;100791.38;3538266;40;20058;-71
2021/05/26 06:27:38;;;;;;;1.83;0.70;;;;;;;11.59;43.95;100790.38;3542909;40;20053;-70
2021/05/26 06:30:27;;;;;;;1.05;0.80;;;;;;;11.59;43.98;100787.63;3546073;40;20050;-69
2021/05/26 06:33:02;;;;;;;2.25;0.63;;;;;;;11.61;44.01;100782.84;3546055;40;20065;-69
2021/05/26 06:35:41;;;;;;;1.33;0.80;;;;;;;11.63;44.21;100782.72;3546139;40;20695;-69
2021/05/26 06:38:28;;;;;;;2.10;0.90;;;;;;;11.63;43.97;100782.72;3548572;40;20039;-71
2021/05/26 06:41:21;;;;;;;1.30;0.90;;;;;;;11.67;44.14;100781.44;3547823;40;20085;-69
2021/05/26 06:44:11;;;;;;;2.08;0.73;;;;;;;11.65;44.31;100781.56;3547064;40;20054;-70
2021/05/26 06:47:02;;;;;;;2.05;0.75;;;;;;;11.69;44.13;100789.53;3542611;40;20093;-72
2021/05/26 06:49:50;;;;;;;2.40;0.90;;;;;;;11.69;44.24;100781.28;3544786;40;20061;-72
2021/05/26 06:52:40;;;;;;;1.70;0.82;;;;;;;11.71;44.19;100784.75;3544105;40;20057;-72
2021/05/26 06:55:29;;;;;;;1.58;0.68;;;;;;;11.71;43.94;100777.38;3546808;40;20285;-71
2021/05/26 06:58:17;;;;;;;1.08;0.70;;;;;;;11.72;43.80;100778.25;3536248;40;20055;-71
2021/05/26 07:01:04;;;;;;;0.95;0.70;;;;;;;11.74;43.92;100778.97;3547033;40;20082;-71
2021/05/26 07:03:53;;;;;;;1.10;0.70;;;;;;;11.76;43.63;100782.47;3546158;40;20348;-71
2021/05/26 07:06:45;;;;;;;1.52;0.80;;;;;;;11.79;43.65;100771.19;3549464;40;20054;-70
2021/05/26 07:09:33;;;;;;;2.42;0.77;;;;;;;11.76;44.05;100768.75;3549542;40;20052;-71
2021/05/26 07:12:21;;;;;;;1.42;0.75;;;;;;;11.78;43.82;100767.59;3549315;40;20089;-71
2021/05/26 07:15:10;;;;;;;1.00;0.68;;;;;;;11.79;43.52;100766.56;3545479;40;20117;-72
2021/05/26 07:18:02;;;;;;;0.93;0.65;;;;;;;11.83;43.25;100769.91;3543494;40;20404;-71
2021/05/26 07:20:53;;;;;;;1.25;0.70;;;;;;;11.81;43.79;100770.06;3549011;40;20152;-71
2021/05/26 07:23:41;;;;;;;2.13;0.80;;;;;;;11.82;43.40;100766.31;3549246;40;20120;-69
2021/05/26 07:26:32;;;;;;;1.00;0.70;;;;;;;11.86;43.52;100772.34;3545174;40;20482;-71
2021/05/26 07:29:20;;;;;;;0.70;0.70;;;;;;;11.86;43.68;100766.88;3548337;40;20054;-71
2021/05/26 07:32:08;;;;;;;1.20;0.80;;;;;;;11.88;43.60;100762.13;3546353;40;20041;-72
2021/05/26 07:34:57;;;;;;;0.75;0.70;;;;;;;11.90;43.22;100751.88;3547775;40;20466;-72
2021/05/26 07:37:49;;;;;;;0.70;0.60;;;;;;;11.94;43.49;100759.69;3546682;40;20132;-71
2021/05/26 07:40:51;;;;;;;0.90;0.55;;;;;;;11.91;43.58;100757.25;3548337;40;20132;-71
2021/05/26 07:43:39;;;;;;;1.45;0.80;;;;;;;11.95;43.71;100750.47;3548053;40;20551;-72
2021/05/26 07:46:27;;;;;;;1.00;0.60;;;;;;;11.97;43.21;100762.16;3546965;40;20062;-71
2021/05/26 07:49:10;;;;;;;1.00;0.80;;;;;;;11.98;43.68;100752.06;3545415;40;20050;-71
2021/05/26 07:51:45;;;;;;;1.10;0.73;;;;;;;12.01;43.11;100747.16;3547238;40;20422;-71
2021/05/26 07:54:13;;;;;;;2.17;0.75;;;;;;;12.06;43.41;100751.34;3539339;40;20054;-71
2021/05/26 07:56:43;;;;;;;1.00;0.70;;;;;;;12.06;43.36;100749.47;3548419;40;20135;-71
2021/05/26 07:59:10;;;;;;;1.10;0.70;;;;;;;12.08;43.69;100749.31;3548145;40;20145;-71
2021/05/26 08:01:38;;;;;;;0.85;0.65;;;;;;;12.09;43.34;100749.19;3546025;40;20047;-71
2021/05/26 08:04:06;;;;;;;1.63;0.68;;;;;;;12.14;43.41;100754.22;3547286;40;20084;-71
2021/05/26 08:06:39;;;;;;;1.13;0.68;;;;;;;12.17;43.38;100751.19;3548610;40;20066;-70
2021/05/26 08:09:07;;;;;;;0.77;0.60;;;;;;;12.18;43.58;100756.53;3547616;40;20054;-71
2021/05/26 08:11:36;;;;;;;2.35;0.80;;;;;;;12.23;43.30;100751.47;3548525;40;20050;-71
2021/05/26 08:14:07;;;;;;;1.55;0.70;;;;;;;12.25;43.36;100740.38;3545363;40;20054;-71
2021/05/26 08:16:38;;;;;;;0.50;0.50;;;;;;;12.28;43.03;100745.53;3547985;40;20443;-72
2021/05/26 08:19:06;;;;;;;1.05;0.70;;;;;;;12.29;42.86;100739.91;3544718;40;20300;-71
2021/05/26 08:21:34;;;;;;;0.80;0.52;;;;;;;12.30;43.10;100733.41;3545585;40;20062;-71
2021/05/26 08:24:03;;;;;;;1.10;0.60;;;;;;;12.32;43.13;100734.16;3548091;40;20038;-72
2021/05/26 08:26:32;;;;;;;1.17;0.70;;;;;;;12.35;43.13;100735.69;3548559;40;20498;-71
2021/05/26 08:29:04;;;;;;;0.75;0.65;;;;;;;12.43;43.26;100728.47;3547546;40;20078;-71
2021/05/26 08:31:32;;;;;;;0.40;0.40;;;;;;;12.49;43.43;100732.53;3547965;40;20058;-71
2021/05/26 08:37:52;;;;;;;0.45;0.45;;;;;;;12.65;42.90;100727.28;3526631;40;20073;-71
2021/05/26 08:40:21;;;;;;;0.60;0.45;;;;;;;12.75;42.82;100725.38;3538141;40;20053;-70
2021/05/26 08:42:50;;;;;;;0.70;0.50;;;;;;;12.81;42.46;100721.16;3548843;40;20046;-70
2021/05/26 08:45:19;;;;;;;1.13;0.55;;;;;;;12.86;42.49;100713.31;3546935;40;20429;-71
2021/05/26 08:47:52;;;;;;;1.13;0.60;;;;;;;12.92;41.97;100715.50;3545156;40;20085;-73
2021/05/26 08:50:20;;;;;;;1.42;0.50;;;;;;;12.92;42.40;100712.78;3546269;40;20058;-71
2021/05/26 08:52:49;;;;;;;1.08;0.50;;;;;;;12.98;41.94;100708.53;3536577;40;20047;-71
2021/05/26 08:55:18;;;;;;;0.57;0.47;;;;;;;13.02;41.95;100710.81;3548406;40;20054;-72
2021/05/26 08:57:45;;;;;;;0.40;0.40;;;;;;;13.05;42.34;100699.53;3548301;40;20403;-71
2021/05/26 09:00:14;;;;;;;0.82;0.50;;;;;;;13.10;42.58;100696.31;3547876;40;20061;-70
2021/05/26 09:02:43;;;;;;;1.48;0.57;;;;;;;13.17;42.72;100691.97;3548192;40;20050;-71
2021/05/26 09:05:22;;;;;;;0.50;0.50;;;;;;;13.29;42.39;100692.63;3548883;40;20045;-70
2021/05/26 09:07:50;;;;;;;0.90;0.60;;;;;;;13.36;42.31;100688.22;3545288;40;20069;-71
2021/05/26 09:10:18;;;;;;;0.73;0.50;;;;;;;13.47;42.18;100697.13;3547544;40;20058;-73
2021/05/26 09:12:47;;;;;;;1.13;0.50;;;;;;;13.56;41.79;100695.31;3545859;40;20391;-72
2021/05/26 09:15:17;;;;;;;0.60;0.50;;;;;;;13.64;41.43;100694.53;3547796;40;20333;-71
2021/05/26 09:17:48;;;;;;;1.05;0.50;;;;;;;13.71;41.37;100698.38;3548444;40;20315;-73
2021/05/26 09:20:23;;;;;;;0.98;0.60;;;;;;;13.75;40.93;100691.53;3547425;40;20048;-72
2021/05/26 09:23:05;;;;;;;1.45;0.50;;;;;;;13.79;40.79;100690.22;3546000;40;21281;-72
2021/05/26 09:25:35;;;;;;;0.88;0.50;;;;;;;13.78;41.00;100689.34;3543539;40;20446;-71
2021/05/26 09:28:23;;;;;;;1.75;0.60;;;;;;;13.85;40.09;100687.69;3546348;40;20047;-71
2021/05/26 09:30:54;;;;;;;0.73;0.40;;;;;;;13.84;40.06;100683.22;3545317;40;20085;-71
2021/05/26 09:33:25;;;;;;;0.50;0.50;;;;;;;13.87;40.21;100680.19;3546984;40;20069;-71
2021/05/26 09:36:15;;;;;;;1.20;0.60;;;;;;;13.86;39.86;100680.31;3550256;40;20058;-70
2021/05/26 09:38:46;;;;;;;1.52;0.60;;;;;;;13.88;40.03;100686.56;3546321;40;20050;-70
2021/05/26 09:41:17;;;;;;;0.40;0.38;;;;;;;13.89;40.28;100683.66;3547088;40;20053;-71
2021/05/26 09:43:48;;;;;;;0.57;0.57;;;;;;;13.89;39.77;100691.91;3546042;40;20289;-70
2021/05/26 09:46:27;;;;;;;0.57;0.47;;;;;;;13.90;39.50;100681.78;3550379;40;20057;-73
2021/05/26 09:49:13;;;;;;;1.27;0.43;;;;;;;13.88;39.25;100676.44;3545459;40;20082;-71
2021/05/26 09:51:42;;;;;;;0.77;0.50;;;;;;;13.84;39.59;100669.47;3546342;40;20131;-71
2021/05/26 09:54:22;;;;;;;0.63;0.40;;;;;;;13.86;39.61;100672.97;3537799;40;20276;-71
2021/05/26 09:56:51;;;;;;;0.40;0.35;;;;;;;13.84;39.59;100679.59;3546306;40;20050;-70
2021/05/26 09:59:21;;;;;;;1.02;0.45;;;;;;;13.82;39.97;100677.03;3544421;40;20050;-71
2021/05/26 10:01:54;;;;;;;1.15;0.40;;;;;;;13.83;39.58;100678.75;3543039;40;20101;-70
2021/05/26 10:04:23;;;;;;;0.40;0.40;;;;;;;13.83;39.39;100673.25;3545360;40;20081;-70
2021/05/26 10:07:12;;;;;;;0.85;0.50;;;;;;;13.82;39.24;100670.69;3549441;40;20058;-71
2021/05/26 10:09:49;;;;;;;0.30;0.30;;;;;;;13.84;39.25;100677.72;3547637;40;20128;-70
2021/05/26 10:12:34;;;;;;;0.40;0.40;;;;;;;13.81;39.59;100669.81;3539407;40;20045;-70
2021/05/26 10:15:03;;;;;;;0.63;0.35;;;;;;;13.83;39.55;100677.91;3528519;40;20046;-72
2021/05/26 10:17:35;;;;;;;1.05;0.50;;;;;;;13.84;39.88;100663.09;3542240;40;20140;-72
2021/05/26 10:20:07;;;;;;;0.47;0.40;;;;;;;13.86;39.96;100672.97;3539980;40;20368;-72
2021/05/26 10:22:36;;;;;;;1.35;0.43;;;;;;;13.87;39.72;100669.19;3541656;40;20097;-72
2021/05/26 10:25:06;;;;;;;0.90;0.68;;;;;;;13.91;39.94;100675.25;3542348;40;20046;-72
2021/05/26 10:27:39;;;;;;;0.60;0.40;;;;;;;13.94;39.54;100677.66;3542755;40;20440;-72
2021/05/26 10:30:08;;;;;;;0.80;0.50;;;;;;;13.95;39.85;100678.53;3543149;40;20078;-72
2021/05/26 10:33:00;;;;;;;1.08;0.75;;;;;;;13.97;39.29;100674.63;3544353;40;20042;-71
2021/05/26 10:35:30;;;;;;;1.08;0.50;;;;;;;13.97;39.49;100671.88;3547135;40;20344;-72
2021/05/26 10:38:09;;;;;;;1.10;0.50;;;;;;;14.00;39.32;100670.66;3547673;40;20140;-72
2021/05/26 10:40:44;;;;;;;2.03;0.70;;;;;;;14.00;39.35;100663.28;3545335;40;20042;-72
2021/05/26 10:43:59;;;;;;;0.57;0.43;;;;;;;13.97;39.56;100669.13;3545795;40;20058;-69
2021/05/26 10:46:36;;;;;;;0.95;0.60;;;;;;;14.06;40.14;100664.53;3544546;40;20132;-69
2021/05/26 10:49:42;;;;;;;0.70;0.60;;;;;;;14.12;39.89;100659.25;3544225;40;20403;-69
2021/05/26 10:52:11;;;;;;;0.90;0.60;;;;;;;14.20;40.18;100664.81;3536011;40;20140;-69
2021/05/26 10:54:56;;;;;;;0.60;0.50;;;;;;;14.28;40.08;100666.78;3545285;40;20051;-69
2021/05/26 10:57:25;;;;;;;1.23;0.50;;;;;;;14.34;40.38;100657.84;3532402;40;20058;-70
2021/05/26 11:00:30;;;;;;;0.60;0.50;;;;;;;14.42;40.13;100670.81;3546534;40;20066;-70
2021/05/26 11:03:41;;;;;;;0.93;0.50;;;;;;;14.53;39.48;100670.53;3515074;40;20053;-69
2021/05/26 11:06:39;;;;;;;1.67;0.63;;;;;;;14.57;39.68;100666.47;3541668;40;20038;-72
2021/05/26 11:09:09;;;;;;;1.02;0.60;;;;;;;14.63;39.97;100663.03;3541925;40;20065;-72
2021/05/26 11:11:41;;;;;;;1.10;0.60;;;;;;;14.71;38.83;100664.97;3543848;40;20054;-71
2021/05/26 11:14:29;;;;;;;1.67;0.87;;;;;;;14.72;39.22;100672.22;3548394;40;20062;-70
2021/05/26 11:17:36;;;;;;;1.23;0.70;;;;;;;14.72;38.49;100674.97;3544710;40;20269;-70
2021/05/26 11:20:19;;;;;;;0.63;0.57;;;;;;;14.69;38.74;100676.16;3537631;40;20065;-70
2021/05/26 11:23:07;;;;;;;;;;;;;;;;;;;;;
2021/05/26 11:25:48;;;;;;;1.27;0.80;;;;;;;14.65;38.98;100674.75;3530155;40;20063;-72
2021/05/26 11:28:25;;;;;;;1.20;0.75;;;;;;;14.64;38.67;100679.41;3548704;40;20081;-72
2021/05/26 11:31:05;;;;;;;0.98;0.70;;;;;;;14.63;39.00;100682.31;3546897;40;20047;-72
2021/05/26 11:33:33;;;;;;;1.23;0.70;;;;;;;14.60;38.68;100690.88;3550888;40;20046;-72
2021/05/26 11:36:04;;;;;;;1.50;0.80;;;;;;;14.58;39.11;100681.91;3545971;40;20059;-71
2021/05/26 11:38:34;;;;;;;1.58;0.77;;;;;;;14.57;39.27;100682.97;3549365;40;20060;-71
2021/05/26 11:41:16;;;;;;;1.25;0.80;;;;;;;14.59;39.00;100686.41;3538567;40;20054;-70
2021/05/26 11:43:45;;;;;;;1.92;0.90;;;;;;;14.56;38.78;100689.50;3548932;40;20132;-71
2021/05/26 11:46:13;;;;;;;1.45;0.80;;;;;;;14.56;38.88;100684.88;3536160;40;20054;-71
2021/05/26 11:48:47;;;;;;;1.42;0.68;;;;;;;14.57;39.03;100694.81;3545182;40;20128;-70
2021/05/26 11:51:24;;;;;;;1.40;0.80;;;;;;;14.56;38.82;100684.00;3537235;40;20066;-69
2021/05/26 11:53:55;;;;;;;1.90;0.60;;;;;;;14.56;38.79;100681.25;3548220;40;20411;-70
2021/05/26 11:56:24;;;;;;;1.83;0.90;;;;;;;14.55;38.83;100687.78;3536617;40;20062;-72
2021/05/26 11:58:55;;;;;;;2.50;1.00;;;;;;;14.54;38.76;100681.41;3545958;40;20042;-72
2021/05/26 12:01:29;;;;;;;1.17;0.80;;;;;;;14.57;38.33;100680.22;3548885;40;20418;-71
2021/05/26 12:03:57;;;;;;;1.67;0.80;;;;;;;14.52;39.26;100677.94;3544053;40;20053;-71
2021/05/26 12:06:25;;;;;;;2.17;0.90;;;;;;;14.55;38.89;100676.75;3539997;40;20046;-72
2021/05/26 12:08:54;;;;;;;3.15;0.85;;;;;;;14.57;39.31;100675.56;3547758;40;20057;-71
2021/05/26 12:11:22;;;;;;;2.45;1.20;;;;;;;14.59;38.73;100670.75;3547449;40;20054;-72
2021/05/26 12:13:51;;;;;;;1.13;0.80;;;;;;;14.61;38.95;100676.09;3548642;40;20042;-72
2021/05/26 12:16:22;;;;;;;1.70;1.00;;;;;;;14.65;39.33;100661.00;3550950;40;20513;-71
2021/05/26 12:19:05;;;;;;;;;;;;;;;;;;;;;
2021/05/26 12:21:36;;;;;;;1.58;0.93;;;;;;;14.71;39.29;100671.34;3544572;40;20058;-71